createdAt,value
2018-06-17T00:05:46.721Z,3.8
2018-06-17T00:15:49.068Z,4.4
2018-06-17T00:25:52.588Z,4.3
2018-06-17T00:35:59.701Z,4.7
2018-06-17T00:46:00.505Z,4.6
2018-06-17T00:56:14.311Z,4.3
2018-06-17T01:06:20.551Z,4.3
2018-06-17T01:16:33.616Z,4.5
2018-06-17T01:26:40.423Z,3.5
2018-06-17T01:36:45.986Z,4.2
2018-06-17T01:46:50.291Z,4.2
2018-06-17T01:56:56.368Z,4.4
2018-06-17T02:06:57.002Z,4.3
2018-06-17T02:17:11.460Z,4
2018-06-17T02:27:17.453Z,4.5
2018-06-17T02:37:20.779Z,4.3
2018-06-17T02:47:24.769Z,4.2
2018-06-17T02:57:33.981Z,4.9
2018-06-17T03:07:36.239Z,4.2
2018-06-17T03:17:49.713Z,3.7
2018-06-17T03:27:51.524Z,4
2018-06-17T03:37:54.546Z,4.4
2018-06-17T03:48:01.260Z,4.3
2018-06-17T03:58:16.779Z,3.9
2018-06-17T04:08:20.691Z,4.4
2018-06-17T04:18:24.094Z,4.1
2018-06-17T04:28:26.772Z,4.4
2018-06-17T04:38:34.291Z,4.4
2018-06-17T04:48:35.948Z,3.9
2018-06-17T04:58:41.472Z,4.6
2018-06-17T05:08:50.568Z,3.5
2018-06-17T05:18:55.079Z,3.7
2018-06-17T05:29:08.084Z,4.7
2018-06-17T05:39:13.392Z,3.8
2018-06-17T05:49:25.049Z,3.8
2018-06-17T05:59:30.454Z,4.1
2018-06-17T06:09:43.547Z,3.3
2018-06-17T06:19:47.017Z,3.8
2018-06-17T06:29:59.846Z,2.4
2018-06-17T06:40:08.396Z,3.2
2018-06-17T06:50:26.350Z,3.3
2018-06-17T07:00:33.468Z,3.5
2018-06-17T07:10:38.930Z,3.5
2018-06-17T07:20:55.924Z,3
2018-06-17T07:31:05.357Z,3.6
2018-06-17T07:41:06.623Z,3.5
2018-06-17T07:51:14.262Z,3.6
2018-06-17T08:01:27.754Z,3.2
2018-06-17T08:11:39.220Z,3.1
2018-06-17T08:21:45.699Z,3.6
2018-06-17T08:32:05.131Z,2.9
2018-06-17T08:42:17.661Z,4.1
2018-06-17T08:52:22.823Z,4.4
2018-06-17T09:02:24.994Z,3.8
2018-06-17T09:12:25.337Z,6.3
2018-06-17T09:22:29.651Z,5.2
2018-06-17T09:32:35.716Z,5
2018-06-17T09:42:41.451Z,4.8
2018-06-17T09:52:47.315Z,4.9
2018-06-17T10:02:47.830Z,25.6
2018-06-17T10:12:49.499Z,22.9
2018-06-17T10:22:51.416Z,7.2
2018-06-17T10:32:52.443Z,6.7
2018-06-17T10:42:52.232Z,7.3
2018-06-17T10:52:55.975Z,5.2
2018-06-17T11:03:03.724Z,6.1
2018-06-17T11:13:16.029Z,6.5
2018-06-17T11:23:19.486Z,6.4
2018-06-17T11:33:19.966Z,8.7
2018-06-17T11:43:20.631Z,5.5
2018-06-17T11:53:20.832Z,7.3
2018-06-17T12:03:34.424Z,7.4
2018-06-17T12:13:38.301Z,7.5
2018-06-17T12:23:43.370Z,7.2
2018-06-17T12:33:43.394Z,5.5
2018-06-17T12:43:42.884Z,5.8
2018-06-17T12:53:42.448Z,6.9
2018-06-17T13:03:42.641Z,6.1
2018-06-17T13:13:43.314Z,6.2
2018-06-17T13:23:48.224Z,9.9
2018-06-17T13:34:06.251Z,6.8
2018-06-17T13:44:09.950Z,7.1
2018-06-17T13:54:15.842Z,6.8
2018-06-17T14:04:23.343Z,5.3
2018-06-17T14:14:35.387Z,5.1
2018-06-17T14:24:35.236Z,5.3
2018-06-17T14:34:44.688Z,5.7
2018-06-17T14:44:48.468Z,4.9
2018-06-17T14:54:51.813Z,4.7
2018-06-17T15:04:58.280Z,4.1
2018-06-17T15:15:04.919Z,4.3
2018-06-17T15:25:17.119Z,3.5
2018-06-17T15:35:17.504Z,4.1
2018-06-17T15:45:17.083Z,4.7
2018-06-17T15:55:17.200Z,4.4
2018-06-17T16:05:19.911Z,5.2
2018-06-17T16:15:24.132Z,5.3
2018-06-17T16:25:26.573Z,4.7
2018-06-17T16:35:32.095Z,4.1
2018-06-17T16:45:37.085Z,4.8
2018-06-17T16:55:36.922Z,4.5
2018-06-17T17:05:36.401Z,4.7
2018-06-17T17:15:35.791Z,4.4
2018-06-17T17:25:35.595Z,4.5
2018-06-17T17:35:36.470Z,3.6
2018-06-17T17:45:35.926Z,4.2
2018-06-17T17:55:41.127Z,3.1
2018-06-17T18:05:40.739Z,2.9
2018-06-17T18:15:40.572Z,3.5
2018-06-17T18:25:44.386Z,3.5
2018-06-17T18:35:44.450Z,3.5
2018-06-17T18:45:45.417Z,3.2
2018-06-17T18:55:47.413Z,3.1
2018-06-17T19:05:48.461Z,3.1
2018-06-17T19:15:55.623Z,2.8
2018-06-17T19:25:55.588Z,1.9
2018-06-17T19:35:56.491Z,1.9
2018-06-17T19:45:56.469Z,2.1
2018-06-17T19:55:58.123Z,2.1
2018-06-17T20:05:58.627Z,1.8
2018-06-17T20:15:59.791Z,2.4
2018-06-17T20:25:59.580Z,2.5
2018-06-17T20:35:58.856Z,4.1
2018-06-17T20:45:58.109Z,3.5
2018-06-17T20:55:57.418Z,3.5
2018-06-17T21:05:56.884Z,3
2018-06-17T21:15:56.105Z,3.3
2018-06-17T21:25:55.723Z,3.6
2018-06-17T21:35:57.961Z,2.7
2018-06-17T21:45:57.291Z,3.1
2018-06-17T21:55:56.657Z,3.2
2018-06-17T22:05:55.950Z,3.6
2018-06-17T22:15:55.246Z,3.3
2018-06-17T22:25:54.930Z,3.2
2018-06-17T22:35:54.086Z,3.5
2018-06-17T22:45:53.306Z,4
2018-06-17T22:55:52.707Z,4.5
2018-06-17T23:05:54.716Z,4.8
2018-06-17T23:15:54.284Z,3.7
2018-06-17T23:25:53.490Z,3.4
2018-06-17T23:35:52.817Z,3.3
2018-06-17T23:45:52.156Z,2.7
2018-06-17T23:55:53.046Z,1.8
